Kirksville, MO

6:48 AM CDT on October 02, 2014 (GMT -0500)
Kirksville Regional | Change Station
CLOSE
Current Station
Airport
Location: Kirksville,
Elevation: 965 ft
Nearby Weather Stations

Elev 965 ft 40.10 °N, 92.55 °W | Updated 53 minutes ago

Mostly Cloudy
Mostly Cloudy
63 °F
Feels Like 63 °F
N
4
Wind Variable Wind from SE

Today
High -- | Low -- °F
--% Chance of Precip.
Yesterday
High -- | Low -- °F
Precip. -- in
7:07 AM 6:50 PM
First Quarter, 58% visible
Pressure 29.80 in
Visibility 10.0 miles
Clouds Mostly Cloudy 600 ft
Mostly Cloudy 11000 ft
Dew Point 63 °F
Humidity 100%
Rainfall 0.12 in
Snow Depth Not available.
UV 0 out of 12
Pollen .50 out of 12
Air Quality Not available.
Flu Activity Not available.
METAR KIRK 021055Z AUTO 14003KT 10SM BKN006 BKN110 17/17 A2980 RMK AO2 SLP091 T01720172

More Conditions Fewer Conditions

Pressure 29.80 in
Visibility 10.0 miles
Clouds Mostly Cloudy 600 ft
Mostly Cloudy 11000 ft
Dew Point 63 °F
Humidity 100%
Rainfall 0.12 in
Snow Depth Not available.
UV 0 out of 12
Pollen .50 out of 12
Air Quality Not available.
Flu Activity Not available.
METAR KIRK 021055Z AUTO 14003KT 10SM BKN006 BKN110 17/17 A2980 RMK AO2 SLP091 T01720172

More Conditions Fewer Conditions

10-Day Weather Forecast

Almanac

Astronomy

Oct. 02, 2014 Rise Set
Actual Time 7:07 AM CDT 6:50 PM CDT
Civil Twilight 6:40 AM CDT 7:17 PM CDT
Nautical Twilight 6:09 AM CDT 7:49 PM CDT
Astronomical Twilight 5:37 AM CDT 8:20 PM CDT
Moon 2:57 PM CDT 12:24 AM CDT
Length of Visible Light 12h 37m
Length of Day
11h 43m
Tomorrow will be 2m 37s shorter.
First Quarter, 58% of the Moon is Illuminated
Today
First Quarter
Oct 8
Full
Oct 15
Last Quarter
Oct 23
New
Oct 30
First Quarter

Today's Extremes

State Highs State Lows

Community

WunderPhotos

Upload Photos

1,758,221 photos uploaded!

WunderBlogs® & News

Nearby

Snow Depth

Station Depth Elevation
No new snow has been reported.

Earthquake Activity

City Distance Mag. Time & Date
No recent earthquake activity has been reported nearby.
Minimum magnitude displayed is 2.5.

Coastal Water Temperatures

Place Temperature
No Stations Reporting

Nearby Weather Stations